createdAt,value
2022-11-14T00:22:24.387Z,23.58
2022-11-14T00:24:50.917Z,22.80
2022-11-14T00:27:17.532Z,24.60
2022-11-14T00:29:44.146Z,20.30
2022-11-14T00:34:59.547Z,22.08
2022-11-14T00:37:27.172Z,23.95
2022-11-14T00:39:53.723Z,24.17
2022-11-14T00:42:20.285Z,21.60
2022-11-14T00:44:46.886Z,21.65
2022-11-14T00:47:13.439Z,21.67
2022-11-14T00:50:04.358Z,22.80
2022-11-14T00:52:51.108Z,24.92
2022-11-14T00:57:52.875Z,22.17
2022-11-14T01:00:19.562Z,20.58
2022-11-14T01:02:46.106Z,22.10
2022-11-14T01:05:12.749Z,23.48
2022-11-14T01:10:14.660Z,22.17
2022-11-14T01:15:43.644Z,21.60
2022-11-14T01:26:55.525Z,24.23
2022-11-14T01:29:22.193Z,23.33
2022-11-14T01:39:58.463Z,21.40
2022-11-14T01:42:27.385Z,22.75
2022-11-14T01:47:42.556Z,21.92
2022-11-14T01:50:10.572Z,21.80
2022-11-14T01:52:59.151Z,22.37
2022-11-14T01:55:27.401Z,22.92
2022-11-14T01:57:54.030Z,22.00
2022-11-14T02:00:20.746Z,22.70
2022-11-14T02:02:48.076Z,21.67
2022-11-14T02:05:17.881Z,23.30
2022-11-14T02:07:44.679Z,23.27
2022-11-14T02:10:17.772Z,22.25
2022-11-14T02:15:12.086Z,21.77
2022-11-14T02:17:38.706Z,23.00
2022-11-14T02:20:28.614Z,22.10
2022-11-14T02:22:55.575Z,23.92
2022-11-14T02:25:22.119Z,24.73
2022-11-14T02:27:49.606Z,22.98
2022-11-14T02:30:19.750Z,21.87
2022-11-14T02:36:10.455Z,24.65
2022-11-14T02:38:58.593Z,22.27
2022-11-14T02:41:25.312Z,23.35
2022-11-14T02:43:51.849Z,22.37
2022-11-14T02:46:22.875Z,22.95
2022-11-14T02:49:04.747Z,21.48
2022-11-14T02:51:31.271Z,22.40
2022-11-14T02:53:57.863Z,22.75
2022-11-14T02:56:24.633Z,22.23
2022-11-14T02:58:51.210Z,21.42
2022-11-14T03:01:21.797Z,21.33
2022-11-14T03:04:06.971Z,21.75
2022-11-14T03:06:44.313Z,21.10
2022-11-14T03:09:10.864Z,19.50
2022-11-14T03:11:38.932Z,19.55
2022-11-14T03:14:05.578Z,20.67
2022-11-14T03:16:32.190Z,20.00
2022-11-14T03:18:58.701Z,18.95
2022-11-14T03:22:09.111Z,21.08
2022-11-14T03:25:06.866Z,19.35
2022-11-14T03:27:33.409Z,19.15
2022-11-14T03:29:59.989Z,17.98
2022-11-14T03:32:26.708Z,18.45
2022-11-14T03:34:53.306Z,18.92
2022-11-14T03:37:19.887Z,19.05
2022-11-14T03:39:46.414Z,18.92
2022-11-14T03:44:54.363Z,23.20
2022-11-14T03:47:20.979Z,21.10
2022-11-14T03:49:47.507Z,20.98
2022-11-14T03:52:14.079Z,20.50
2022-11-14T03:54:40.610Z,22.75
2022-11-14T03:57:19.443Z,22.27
2022-11-14T04:00:10.991Z,22.62
2022-11-14T04:02:37.593Z,20.33
2022-11-14T04:05:04.431Z,22.02
2022-11-14T04:07:31.069Z,23.70
2022-11-14T04:09:57.637Z,17.70
2022-11-14T04:12:24.331Z,21.62
2022-11-14T04:14:50.879Z,19.12
2022-11-14T04:19:59.588Z,24.73
2022-11-14T04:28:03.601Z,23.70
2022-11-14T04:30:48.602Z,22.75
2022-11-14T04:49:47.399Z,21.77
2022-11-14T04:52:13.934Z,19.62
2022-11-14T04:54:40.540Z,20.23
2022-11-14T04:57:07.099Z,21.83
2022-11-14T04:59:33.737Z,21.73
2022-11-14T05:02:00.302Z,20.00
2022-11-14T05:04:26.905Z,20.05
2022-11-14T05:06:53.546Z,19.73
2022-11-14T05:09:20.112Z,18.40
2022-11-14T05:11:46.707Z,18.73
2022-11-14T05:14:32.321Z,18.83
2022-11-14T05:16:59.136Z,21.27
2022-11-14T05:19:25.692Z,18.45
2022-11-14T05:21:52.289Z,18.12
2022-11-14T05:24:19.893Z,18.50
2022-11-14T05:27:23.443Z,19.83
2022-11-14T05:30:12.224Z,21.23
2022-11-14T05:32:39.037Z,19.83
2022-11-14T05:35:06.231Z,21.15
2022-11-14T05:37:34.478Z,21.40
2022-11-14T05:40:01.101Z,20.73
2022-11-14T05:42:28.335Z,24.67
2022-11-14T05:44:54.870Z,27.50
2022-11-14T05:47:21.491Z,26.30
2022-11-14T05:49:48.052Z,23.95
2022-11-14T05:52:14.740Z,23.95
2022-11-14T05:54:41.298Z,25.75
2022-11-14T05:57:08.030Z,24.67
2022-11-14T05:59:34.631Z,22.90
2022-11-14T06:02:01.264Z,22.13
2022-11-14T06:04:28.028Z,21.70
2022-11-14T06:06:54.665Z,23.90
2022-11-14T06:09:21.396Z,21.55
2022-11-14T06:11:47.940Z,20.02
2022-11-14T06:14:14.679Z,19.80
2022-11-14T06:16:41.332Z,19.65
2022-11-14T06:19:07.879Z,20.90
2022-11-14T06:21:34.499Z,20.17
2022-11-14T06:24:01.015Z,20.52
2022-11-14T06:26:32.848Z,21.10
2022-11-14T06:29:00.602Z,20.17
2022-11-14T06:31:27.853Z,20.50
2022-11-14T06:33:54.860Z,20.50
2022-11-14T06:36:21.427Z,20.55
2022-11-14T06:38:48.066Z,21.65
2022-11-14T06:41:19.841Z,21.20
2022-11-14T06:43:49.868Z,20.83
2022-11-14T06:46:19.544Z,18.83
2022-11-14T06:48:47.735Z,19.67
2022-11-14T06:51:16.301Z,20.12
2022-11-14T06:53:43.497Z,18.75
2022-11-14T06:56:12.250Z,20.23
2022-11-14T06:58:44.996Z,19.87
2022-11-14T07:01:17.350Z,17.90
2022-11-14T07:03:44.684Z,19.05
2022-11-14T07:06:13.896Z,19.35
2022-11-14T07:08:40.667Z,19.25
2022-11-14T07:11:09.719Z,18.50
2022-11-14T07:13:36.770Z,20.40
2022-11-14T07:32:40.552Z,19.52
2022-11-14T07:35:07.426Z,21.00
2022-11-14T07:37:33.998Z,20.95
2022-11-14T07:40:00.682Z,20.48
2022-11-14T07:42:29.880Z,20.80
2022-11-14T07:44:56.445Z,20.77
2022-11-14T07:47:23.060Z,20.73
2022-11-14T07:49:49.606Z,20.15
2022-11-14T07:52:16.192Z,20.95
2022-11-14T08:02:31.655Z,20.60
2022-11-14T08:10:24.468Z,20.33
2022-11-14T08:13:24.838Z,20.42
2022-11-14T08:18:21.259Z,19.92
2022-11-14T08:20:47.979Z,20.42
2022-11-14T08:23:15.551Z,20.30
2022-11-14T08:25:42.874Z,19.40
2022-11-14T08:28:09.969Z,20.37
2022-11-14T08:31:17.295Z,17.87
2022-11-14T08:34:05.837Z,19.27
2022-11-14T08:36:32.448Z,19.67
2022-11-14T08:39:02.011Z,21.23
2022-11-14T08:41:28.995Z,20.88
2022-11-14T08:43:55.607Z,20.10
2022-11-14T08:46:22.166Z,20.65
2022-11-14T08:48:48.690Z,19.95
2022-11-14T08:51:15.266Z,20.00
2022-11-14T08:53:41.814Z,19.75
2022-11-14T08:56:10.713Z,19.23
2022-11-14T08:58:37.418Z,18.25
2022-11-14T09:01:06.712Z,19.40
2022-11-14T09:03:34.427Z,20.27
2022-11-14T09:06:02.083Z,19.48
2022-11-14T09:08:29.691Z,20.88
2022-11-14T09:11:04.825Z,19.75
2022-11-14T09:13:33.961Z,20.10
2022-11-14T09:16:00.596Z,18.75
2022-11-14T09:18:27.367Z,19.23
2022-11-14T09:21:00.150Z,18.17
2022-11-14T09:23:26.918Z,19.27
2022-11-14T09:25:54.860Z,18.50
2022-11-14T09:28:21.553Z,18.52
2022-11-14T09:30:48.113Z,17.92
2022-11-14T09:33:14.757Z,18.05
2022-11-14T09:35:42.585Z,19.00
2022-11-14T09:38:11.835Z,17.92
2022-11-14T09:41:06.219Z,17.17
2022-11-14T09:44:02.209Z,18.80
2022-11-14T09:46:42.117Z,17.30
2022-11-14T09:49:18.776Z,17.30
2022-11-14T09:51:51.503Z,17.48
2022-11-14T09:54:22.983Z,19.33
2022-11-14T09:56:50.207Z,17.25
2022-11-14T09:59:17.242Z,17.17
2022-11-14T10:01:57.663Z,16.85
2022-11-14T10:04:28.683Z,17.42
2022-11-14T10:07:27.754Z,17.42
2022-11-14T10:10:09.888Z,17.62
2022-11-14T10:12:56.201Z,17.70
2022-11-14T10:15:41.057Z,16.62
2022-11-14T10:18:29.679Z,16.92
2022-11-14T10:21:18.641Z,16.60
2022-11-14T10:23:47.861Z,16.80
2022-11-14T10:26:26.207Z,17.35
2022-11-14T10:29:14.342Z,17.77
2022-11-14T10:32:10.683Z,16.62
2022-11-14T10:34:47.912Z,17.12
2022-11-14T10:37:40.368Z,17.50
2022-11-14T10:40:20.155Z,17.27
2022-11-14T10:42:51.115Z,16.87
2022-11-14T10:45:33.036Z,16.75
2022-11-14T10:48:04.123Z,15.82
2022-11-14T10:50:46.419Z,15.30
2022-11-14T10:53:34.113Z,16.13
2022-11-14T10:56:05.071Z,16.60
2022-11-14T10:58:51.365Z,16.20
2022-11-14T11:05:04.769Z,15.82
2022-11-14T11:15:52.212Z,15.65
2022-11-14T11:18:28.716Z,15.48
2022-11-14T11:21:08.086Z,15.43
2022-11-14T11:23:35.310Z,15.40
2022-11-14T11:26:36.603Z,15.88
2022-11-14T11:29:10.380Z,14.63
2022-11-14T11:31:57.949Z,15.27
2022-11-14T11:34:29.231Z,13.82
2022-11-14T11:37:02.958Z,15.32
2022-11-14T11:39:33.287Z,14.05
2022-11-14T11:42:10.125Z,15.07
2022-11-14T11:44:46.263Z,15.95
2022-11-14T11:47:16.927Z,14.68
2022-11-14T11:49:54.305Z,15.35
2022-11-14T11:52:31.119Z,14.68
2022-11-14T11:55:09.636Z,14.23
2022-11-14T11:57:43.524Z,13.50
2022-11-14T12:00:18.789Z,14.43
2022-11-14T12:02:50.100Z,15.43
2022-11-14T12:05:36.943Z,12.30
2022-11-14T12:08:07.530Z,13.05
2022-11-14T12:10:38.693Z,12.43
2022-11-14T12:13:05.143Z,12.95
2022-11-14T12:15:50.351Z,11.73
2022-11-14T12:18:36.361Z,12.48
2022-11-14T12:21:13.239Z,12.10
2022-11-14T12:23:51.889Z,12.50
2022-11-14T12:26:36.778Z,11.00
2022-11-14T12:29:43.847Z,10.70
2022-11-14T12:42:49.815Z,10.60
2022-11-14T12:45:41.321Z,10.10
2022-11-14T12:48:20.963Z,10.75
2022-11-14T12:50:47.919Z,10.65
2022-11-14T12:53:38.646Z,10.15
2022-11-14T12:56:31.417Z,10.27
2022-11-14T12:59:10.224Z,9.50
2022-11-14T13:01:44.396Z,10.18
2022-11-14T13:04:14.054Z,9.95
2022-11-14T13:06:55.909Z,9.63
2022-11-14T13:09:28.691Z,11.00
2022-11-14T13:12:14.389Z,10.50
2022-11-14T13:15:48.600Z,9.63
2022-11-14T13:18:38.328Z,9.48
2022-11-14T13:21:46.085Z,9.90
2022-11-14T13:24:16.289Z,8.98
2022-11-14T13:26:48.599Z,9.95
2022-11-14T13:29:39.757Z,8.82
2022-11-14T13:32:11.315Z,9.68
2022-11-14T13:34:46.405Z,9.77
2022-11-14T13:37:42.553Z,9.15
2022-11-14T13:40:19.259Z,8.13
2022-11-14T13:43:07.165Z,8.88
2022-11-14T13:46:01.678Z,8.18
2022-11-14T13:48:28.139Z,8.55
2022-11-14T13:51:15.600Z,8.52
2022-11-14T13:53:49.552Z,8.85
2022-11-14T13:56:24.919Z,9.18
2022-11-14T13:59:10.303Z,8.45
2022-11-14T14:02:29.445Z,8.95
2022-11-14T14:05:04.730Z,8.70
2022-11-14T14:07:55.277Z,8.10
2022-11-14T14:10:38.143Z,8.02
2022-11-14T14:13:13.879Z,7.55
2022-11-14T14:16:12.641Z,9.05
2022-11-14T14:19:01.516Z,9.18
2022-11-14T14:21:49.968Z,8.55
2022-11-14T14:24:44.053Z,9.73
2022-11-14T14:27:16.292Z,8.82
2022-11-14T14:30:11.673Z,9.18
2022-11-14T14:32:38.331Z,10.13
2022-11-14T14:35:40.456Z,10.45
2022-11-14T14:38:12.828Z,12.60
2022-11-14T14:40:42.009Z,12.50
2022-11-14T14:43:21.596Z,12.57
2022-11-14T14:45:54.616Z,12.55
2022-11-14T14:51:00.040Z,13.45
2022-11-14T14:53:30.129Z,14.13
2022-11-14T14:55:58.269Z,14.00
2022-11-14T14:58:30.675Z,14.70
2022-11-14T15:01:03.885Z,13.90
2022-11-14T15:03:38.577Z,13.60
2022-11-14T15:06:18.109Z,15.60
2022-11-14T15:09:03.001Z,14.95
2022-11-14T15:11:32.748Z,14.15
2022-11-14T15:14:02.050Z,13.25
2022-11-14T15:16:29.830Z,13.30
2022-11-14T15:18:58.193Z,13.25
2022-11-14T15:21:27.333Z,13.93
2022-11-14T15:24:15.794Z,14.18
2022-11-14T15:26:46.590Z,13.15
2022-11-14T15:29:27.322Z,21.45
2022-11-14T15:32:00.139Z,27.95
2022-11-14T15:34:36.641Z,26.95
2022-11-14T15:37:16.503Z,26.48
2022-11-14T15:39:44.447Z,22.90
2022-11-14T15:42:29.111Z,22.50
2022-11-14T15:44:56.485Z,21.35
2022-11-14T15:47:25.127Z,19.23
2022-11-14T15:50:01.096Z,16.15
2022-11-14T15:52:38.924Z,16.02
2022-11-14T15:55:17.433Z,16.45
2022-11-14T15:57:48.406Z,19.48
2022-11-14T16:00:23.015Z,18.42
2022-11-14T16:03:11.814Z,18.45
2022-11-14T16:05:38.350Z,20.60
2022-11-14T16:08:05.230Z,21.80
2022-11-14T16:10:31.766Z,21.35
2022-11-14T16:12:58.325Z,20.33
2022-11-14T16:15:24.969Z,21.70
2022-11-14T16:17:51.539Z,25.98
2022-11-14T16:20:27.289Z,29.52
2022-11-14T16:22:55.938Z,32.35
2022-11-14T16:25:30.116Z,35.25
2022-11-14T16:27:56.959Z,35.72
2022-11-14T16:30:25.565Z,35.75
2022-11-14T16:32:52.870Z,32.97
2022-11-14T16:35:20.756Z,34.45
2022-11-14T16:37:47.667Z,31.50
2022-11-14T16:40:17.386Z,30.02
2022-11-14T16:42:44.425Z,32.20
2022-11-14T16:45:11.279Z,32.08
2022-11-14T16:47:39.386Z,27.90
2022-11-14T16:50:06.696Z,27.90
2022-11-14T16:52:33.371Z,28.08
2022-11-14T16:54:59.946Z,27.65
2022-11-14T16:57:26.572Z,27.45
2022-11-14T16:59:53.138Z,30.12
2022-11-14T17:02:19.789Z,26.75
2022-11-14T17:04:46.904Z,22.67
2022-11-14T17:07:16.750Z,23.65
2022-11-14T17:09:46.767Z,22.20
2022-11-14T17:12:13.356Z,23.50
2022-11-14T17:14:40.017Z,23.35
2022-11-14T17:17:06.590Z,30.98
2022-11-14T17:19:33.162Z,26.58
2022-11-14T17:21:59.688Z,25.02
2022-11-14T17:24:31.140Z,26.12
2022-11-14T17:26:58.180Z,23.80
2022-11-14T17:29:24.712Z,24.83
2022-11-14T17:31:51.282Z,56.95
2022-11-14T17:34:17.913Z,57.03
2022-11-14T17:36:44.604Z,43.65
2022-11-14T17:39:11.136Z,42.60
2022-11-14T17:41:38.691Z,31.65
2022-11-14T17:44:05.352Z,28.58
2022-11-14T17:46:32.269Z,25.15
2022-11-14T17:48:59.270Z,24.45
2022-11-14T17:51:25.798Z,24.40
2022-11-14T17:53:52.749Z,25.25
2022-11-14T17:56:21.942Z,23.27
2022-11-14T17:58:53.086Z,24.12
2022-11-14T18:01:22.376Z,25.62
2022-11-14T18:03:50.032Z,24.00
2022-11-14T18:06:20.114Z,24.45
2022-11-14T18:08:47.554Z,23.30
2022-11-14T18:11:16.184Z,26.02
2022-11-14T18:13:43.536Z,24.45
2022-11-14T18:16:18.164Z,24.15
2022-11-14T18:18:45.370Z,23.87
2022-11-14T18:21:17.374Z,24.98
2022-11-14T18:23:44.926Z,24.37
2022-11-14T18:26:17.102Z,24.58
2022-11-14T18:28:43.973Z,25.65
2022-11-14T18:31:11.898Z,24.73
2022-11-14T18:33:39.386Z,29.55
2022-11-14T18:36:10.307Z,27.60
2022-11-14T18:38:37.139Z,27.62
2022-11-14T18:41:08.151Z,28.50
2022-11-14T18:43:35.205Z,29.25
2022-11-14T18:46:09.129Z,29.67
2022-11-14T18:48:37.568Z,29.25
2022-11-14T18:51:06.816Z,29.35
2022-11-14T18:53:35.033Z,30.15
2022-11-14T18:56:26.946Z,33.65
2022-11-14T18:58:55.536Z,33.45
2022-11-14T19:01:26.153Z,35.42
2022-11-14T19:03:56.934Z,35.47
2022-11-14T19:06:23.860Z,34.80
2022-11-14T19:08:51.112Z,31.45
2022-11-14T19:11:36.723Z,30.85
2022-11-14T19:14:05.623Z,28.98
2022-11-14T19:16:33.791Z,30.98
2022-11-14T19:19:01.146Z,29.37
2022-11-14T19:21:28.498Z,28.35
2022-11-14T19:23:55.263Z,27.75
2022-11-14T19:26:22.840Z,28.83
2022-11-14T19:28:49.454Z,27.98
2022-11-14T19:31:16.782Z,27.05
2022-11-14T19:56:40.395Z,24.85
2022-11-14T20:04:58.354Z,26.65
2022-11-14T20:07:25.075Z,24.85
2022-11-14T20:09:51.755Z,25.00
2022-11-14T20:12:18.391Z,24.85
2022-11-14T20:14:45.001Z,23.80
2022-11-14T20:17:12.630Z,25.30
2022-11-14T20:19:39.251Z,27.48
2022-11-14T20:22:06.639Z,27.15
2022-11-14T20:25:30.829Z,26.23
2022-11-14T20:30:44.047Z,27.62
2022-11-14T20:33:11.089Z,26.37
2022-11-14T20:35:38.647Z,26.52
2022-11-14T20:38:05.980Z,24.15
2022-11-14T20:40:33.069Z,22.40
2022-11-14T20:43:00.287Z,22.15
2022-11-14T20:45:28.255Z,21.33
2022-11-14T20:47:55.265Z,22.23
2022-11-14T20:50:22.155Z,22.48
2022-11-14T20:52:48.865Z,28.62
2022-11-14T20:55:15.905Z,25.00
2022-11-14T20:57:45.512Z,23.80
2022-11-14T21:00:12.503Z,24.90
2022-11-14T21:02:39.109Z,26.00
2022-11-14T21:05:06.161Z,27.62
2022-11-14T21:07:32.829Z,25.10
2022-11-14T21:10:17.770Z,27.20
2022-11-14T21:13:04.338Z,31.37
2022-11-14T21:15:33.690Z,28.35
2022-11-14T21:18:00.413Z,26.33
2022-11-14T21:20:27.071Z,25.65
2022-11-14T21:22:53.629Z,25.85
2022-11-14T21:25:20.155Z,29.40
2022-11-14T21:28:08.646Z,29.85
2022-11-14T21:30:35.251Z,27.30
2022-11-14T21:33:01.752Z,28.10
2022-11-14T21:35:31.848Z,30.73
2022-11-14T21:41:50.123Z,30.45
2022-11-14T21:44:27.162Z,29.65
2022-11-14T21:46:53.703Z,32.28
2022-11-14T21:49:20.316Z,28.87
2022-11-14T21:51:48.435Z,29.45
2022-11-14T21:54:15.139Z,30.35
2022-11-14T21:56:41.761Z,29.95
2022-11-14T22:07:14.369Z,31.20
2022-11-14T22:09:45.357Z,29.67
2022-11-14T22:12:30.615Z,32.38
2022-11-14T22:15:43.095Z,29.65
2022-11-14T22:18:29.662Z,30.90
2022-11-14T22:20:56.364Z,29.75
2022-11-14T22:23:22.907Z,30.55
2022-11-14T22:25:56.039Z,28.35
2022-11-14T22:28:31.623Z,30.27
2022-11-14T22:31:05.135Z,28.98
2022-11-14T22:33:36.373Z,27.00
2022-11-14T22:36:07.986Z,28.87
2022-11-14T22:38:36.152Z,27.85
2022-11-14T22:41:04.288Z,26.37
2022-11-14T22:43:33.249Z,28.52
2022-11-14T22:46:00.969Z,32.05
2022-11-14T22:48:30.929Z,31.70
2022-11-14T22:51:03.483Z,33.10
2022-11-14T22:53:32.824Z,32.05
2022-11-14T22:56:00.404Z,38.63
2022-11-14T22:58:31.302Z,30.83
2022-11-14T23:01:01.170Z,30.15
2022-11-14T23:03:28.646Z,30.33
2022-11-14T23:05:55.214Z,28.40
2022-11-14T23:08:22.363Z,27.87
2022-11-14T23:10:49.155Z,28.30
2022-11-14T23:13:15.783Z,26.60
2022-11-14T23:15:47.884Z,29.35
2022-11-14T23:18:14.774Z,25.47
2022-11-14T23:20:41.373Z,25.20
2022-11-14T23:23:07.937Z,25.45
2022-11-14T23:25:36.857Z,25.70
2022-11-14T23:28:18.743Z,26.12
2022-11-14T23:30:45.282Z,26.12
2022-11-14T23:33:11.809Z,24.33
2022-11-14T23:35:38.339Z,22.87
2022-11-14T23:41:55.895Z,22.67
2022-11-14T23:44:22.565Z,22.20
2022-11-14T23:46:49.123Z,23.40
2022-11-14T23:49:15.720Z,21.15
2022-11-14T23:51:42.304Z,20.88
2022-11-14T23:54:08.973Z,21.48
2022-11-14T23:56:35.494Z,21.10
2022-11-14T23:59:02.068Z,22.55
